Kanawha Falls, WV (25115)

10:55 EDT le 25 août 2016 (GMT -0400)
KWVGLENF2 | | Change Station

Alt. 676 ft 38.15 °N, 81.22 °W | Updated 9 minutes ago

Overcast
Couvert
77.0 ° F
Paraît 78 ° F
N
0.0
Vent Variable Vent de ESE
Gusts 2.0 mph

Aujourd'hui
Haut(e) -- | Bas -- ° F
--% Risque de précip.
Hier
Haut(e) -- | Bas -- ° F
Precip. -- pouce
Pression 30.15 pouce
Visibilité 10.0 Miles terrestres
Nuages Couvert 1500 ft
indice de chaleur 78 ° F
Point de rosée 73 ° F
Humidité 88%
Précipitations 0.05 pouce
Profondeur de la couche neigeuse Non disponible.
6:48 AM 8:03 PM
Dernier quartier, 45% visible
METAR KBKW 251451Z AUTO 24005KT 10SM OVC015 23/20 A3025 RMK AO2 RAB33E45 SLP210 P0000 60000 T02330200 51003
Pression 30.15 pouce
Visibilité 10.0 Miles terrestres
Nuages Couvert 1500 ft
indice de chaleur 78 ° F
Point de rosée 73 ° F
Humidité 88%
Précipitations 0.05 pouce
Profondeur de la couche neigeuse Non disponible.
6:48 AM 8:03 PM
Dernier quartier, 45% visible
METAR KBKW 251451Z AUTO 24005KT 10SM OVC015 23/20 A3025 RMK AO2 RAB33E45 SLP210 P0000 60000 T02330200 51003

10-Day Weather Forecast

Almanac

Astronomie

Aug. 25, 2016 Lever Coucher
Temps réel
Crépuscule civil
Crépuscule nautique
Crépuscule astronomique
Lune
Durée de lumière visible
Longueur du jour
Tomorrow will be .
, % of the Moon is Illuminated

Extrêmes aujourd'hui

State Highs State Lows

Community

WunderPhotos

Upload Photos

1,934,850 Photos téléchargées !

WunderBlog® & News

Nearby

Qualité de l'air

  Qualité de l'air Indice de la qualité de l'air Polluant
Not available.

Épaisseur de neige

Station Depth Altitude

Activité sismique

Ville Distance Mag. Time & Date
Minimum magnitude displayed is 2.5.

Températures des eaux côtières

Lieu Température

Stations

Stations météo à proximité

Emplacement de la station Température Refroidissement éolien Point de rosée Humidité Vent Precip. Alt. Mise à jour Type
                   

Watches & Warnings

There are currently no watches in effect.